createdAt,value
2018-03-06T00:00:12.635Z,60.23
2018-03-06T00:02:40.349Z,52.07
2018-03-06T00:05:08.056Z,53.03
2018-03-06T00:07:35.723Z,50.80
2018-03-06T00:10:03.489Z,56.00
2018-03-06T00:12:31.154Z,53.43
2018-03-06T00:14:58.874Z,49.53
2018-03-06T00:17:26.555Z,54.40
2018-03-06T00:19:54.269Z,48.87
2018-03-06T00:22:21.971Z,54.43
2018-03-06T00:24:49.689Z,52.60
2018-03-06T00:27:17.367Z,57.40
2018-03-06T00:29:45.075Z,54.40
2018-03-06T00:32:12.743Z,52.53
2018-03-06T00:34:40.456Z,52.80
2018-03-06T00:37:08.158Z,56.93
2018-03-06T00:39:35.825Z,50.33
2018-03-06T00:42:03.642Z,55.57
2018-03-06T00:44:31.294Z,57.20
2018-03-06T00:46:59.002Z,51.80
2018-03-06T00:49:27.751Z,52.93
2018-03-06T00:51:55.462Z,50.30
2018-03-06T00:54:23.130Z,64.57
2018-03-06T00:56:50.839Z,55.20
2018-03-06T00:59:18.517Z,58.07
2018-03-06T01:01:46.229Z,52.27
2018-03-06T01:04:13.877Z,59.60
2018-03-06T01:06:41.579Z,58.60
2018-03-06T01:09:09.289Z,48.40
2018-03-06T01:11:36.942Z,53.13
2018-03-06T01:14:04.685Z,55.60
2018-03-06T01:16:32.399Z,50.10
2018-03-06T01:19:00.153Z,55.67
2018-03-06T01:21:27.836Z,49.60
2018-03-06T01:23:55.517Z,62.10
2018-03-06T01:26:23.191Z,54.07
2018-03-06T01:28:50.892Z,53.17
2018-03-06T01:31:18.573Z,48.50
2018-03-06T01:33:46.261Z,55.63
2018-03-06T01:36:13.946Z,52.77
2018-03-06T01:38:41.665Z,52.10
2018-03-06T01:41:09.394Z,55.40
2018-03-06T01:43:37.158Z,56.77
2018-03-06T01:46:04.793Z,64.40
2018-03-06T01:48:32.516Z,64.13
2018-03-06T01:51:00.175Z,73.77
2018-03-06T01:53:27.880Z,86.67
2018-03-06T01:55:55.545Z,62.20
2018-03-06T01:58:23.251Z,75.53
2018-03-06T02:00:50.971Z,71.70
2018-03-06T02:03:18.630Z,74.27
2018-03-06T02:05:46.354Z,68.47
2018-03-06T02:08:14.009Z,68.13
2018-03-06T02:10:41.708Z,65.13
2018-03-06T02:13:09.376Z,62.77
2018-03-06T02:15:37.104Z,67.50
2018-03-06T02:18:04.811Z,58.67
2018-03-06T02:20:32.577Z,68.03
2018-03-06T02:23:00.256Z,60.20
2018-03-06T02:25:27.965Z,58.77
2018-03-06T02:27:55.636Z,61.43
2018-03-06T02:30:23.363Z,66.23
2018-03-06T02:32:51.031Z,64.30
2018-03-06T02:35:18.834Z,68.13
2018-03-06T02:37:46.506Z,69.00
2018-03-06T02:40:14.303Z,58.40
2018-03-06T02:42:41.972Z,69.87
2018-03-06T02:45:09.676Z,68.53
2018-03-06T02:47:37.350Z,77.50
2018-03-06T02:50:05.752Z,68.70
2018-03-06T02:52:33.433Z,69.17
2018-03-06T02:55:01.183Z,69.23
2018-03-06T02:57:28.888Z,74.33
2018-03-06T02:59:56.539Z,79.30
2018-03-06T03:02:24.250Z,76.40
2018-03-06T03:04:51.903Z,78.63
2018-03-06T03:07:19.612Z,87.20
2018-03-06T03:09:47.274Z,94.13
2018-03-06T03:12:15.008Z,87.37
2018-03-06T03:14:42.841Z,87.43
2018-03-06T03:17:10.536Z,81.33
2018-03-06T03:19:38.217Z,78.80
2018-03-06T03:22:06.038Z,91.70
2018-03-06T03:24:33.698Z,96.20
2018-03-06T03:27:01.513Z,100.27
2018-03-06T03:29:29.183Z,78.83
2018-03-06T03:31:56.968Z,86.33
2018-03-06T03:34:24.712Z,81.50
2018-03-06T03:36:52.426Z,87.83
2018-03-06T03:39:20.085Z,70.83
2018-03-06T03:41:47.798Z,83.70
2018-03-06T03:44:15.446Z,88.43
2018-03-06T03:46:43.157Z,84.60
2018-03-06T03:49:10.830Z,80.77
2018-03-06T03:51:38.481Z,78.73
2018-03-06T03:54:06.155Z,72.10
2018-03-06T03:56:33.834Z,79.10
2018-03-06T03:59:01.544Z,65.70
2018-03-06T04:01:29.272Z,78.73
2018-03-06T04:03:56.971Z,76.20
2018-03-06T04:06:24.788Z,76.40
2018-03-06T04:08:52.493Z,78.93
2018-03-06T04:11:20.146Z,79.33
2018-03-06T04:13:47.873Z,80.47
2018-03-06T04:16:15.533Z,84.70
2018-03-06T04:18:43.221Z,81.77
2018-03-06T04:21:10.890Z,81.47
2018-03-06T04:23:38.586Z,76.83
2018-03-06T04:26:06.230Z,77.57
2018-03-06T04:28:33.879Z,78.50
2018-03-06T04:31:01.603Z,74.30
2018-03-06T04:33:29.264Z,81.53
2018-03-06T04:35:56.993Z,81.63
2018-03-06T04:38:24.645Z,82.30
2018-03-06T04:40:52.361Z,83.70
2018-03-06T04:43:20.062Z,74.77
2018-03-06T04:45:47.886Z,86.20
2018-03-06T04:48:15.581Z,106.80
2018-03-06T04:50:43.731Z,96.60
2018-03-06T04:53:11.434Z,94.70
2018-03-06T04:55:39.164Z,104.57
2018-03-06T04:58:06.822Z,108.10
2018-03-06T05:00:34.557Z,99.23
2018-03-06T05:03:02.298Z,95.20
2018-03-06T05:05:29.971Z,87.47
2018-03-06T05:07:57.685Z,104.07
2018-03-06T05:10:25.339Z,84.37
2018-03-06T05:12:53.049Z,89.90
2018-03-06T05:15:20.694Z,95.73
2018-03-06T05:17:48.502Z,92.57
2018-03-06T05:20:16.201Z,80.97
2018-03-06T05:22:43.931Z,91.03
2018-03-06T05:25:11.622Z,83.67
2018-03-06T05:27:39.346Z,81.03
2018-03-06T05:30:07.047Z,75.60
2018-03-06T05:32:34.860Z,79.80
2018-03-06T05:35:02.552Z,83.03
2018-03-06T05:37:30.289Z,76.47
2018-03-06T05:39:57.976Z,73.63
2018-03-06T05:42:25.759Z,81.10
2018-03-06T05:44:53.474Z,78.50
2018-03-06T05:47:21.120Z,86.70
2018-03-06T05:49:48.844Z,87.37
2018-03-06T05:52:16.540Z,86.30
2018-03-06T05:54:44.269Z,92.93
2018-03-06T05:57:12.791Z,88.57
2018-03-06T05:59:40.478Z,90.73
2018-03-06T06:02:08.152Z,81.23
2018-03-06T06:04:35.879Z,96.90
2018-03-06T06:07:03.584Z,92.67
2018-03-06T06:09:31.290Z,96.50
2018-03-06T06:11:59.137Z,92.60
2018-03-06T06:14:26.857Z,97.70
2018-03-06T06:16:54.507Z,96.03
2018-03-06T06:19:22.194Z,86.13
2018-03-06T06:21:49.826Z,91.80
2018-03-06T06:24:17.512Z,94.90
2018-03-06T06:26:45.182Z,105.33
2018-03-06T06:29:12.911Z,90.87
2018-03-06T06:31:40.566Z,100.13
2018-03-06T06:34:08.210Z,81.57
2018-03-06T06:36:35.932Z,90.53
2018-03-06T06:39:03.680Z,80.87
2018-03-06T06:41:31.369Z,90.23
2018-03-06T06:43:59.008Z,99.57
2018-03-06T06:46:26.690Z,105.57
2018-03-06T06:48:54.324Z,110.20
2018-03-06T06:51:22.021Z,109.77
2018-03-06T06:53:49.671Z,108.07
2018-03-06T06:56:17.342Z,88.43
2018-03-06T06:58:44.990Z,85.43
2018-03-06T07:01:12.684Z,84.77
2018-03-06T07:03:40.393Z,90.60
2018-03-06T07:06:08.084Z,89.87
2018-03-06T07:08:35.742Z,83.03
2018-03-06T07:11:03.477Z,88.80
2018-03-06T07:13:31.193Z,82.07
2018-03-06T07:15:58.961Z,77.93
2018-03-06T07:18:26.672Z,85.17
2018-03-06T07:20:54.362Z,72.50
2018-03-06T07:23:22.061Z,82.63
2018-03-06T07:25:49.735Z,85.40
2018-03-06T07:28:17.467Z,75.80
2018-03-06T07:30:45.175Z,72.60
2018-03-06T07:33:12.920Z,76.57
2018-03-06T07:35:40.609Z,78.17
2018-03-06T07:38:08.324Z,73.60
2018-03-06T07:40:36.030Z,78.83
2018-03-06T07:43:03.799Z,80.23
2018-03-06T07:45:31.427Z,80.33
2018-03-06T07:47:59.137Z,72.77
2018-03-06T07:50:26.807Z,78.93
2018-03-06T07:52:55.047Z,70.13
2018-03-06T07:55:22.719Z,65.47
2018-03-06T07:57:50.458Z,73.57
2018-03-06T08:00:18.125Z,69.60
2018-03-06T08:02:45.771Z,72.70
2018-03-06T08:05:14.264Z,67.17
2018-03-06T08:07:41.989Z,54.47
2018-03-06T08:10:09.691Z,64.77
2018-03-06T08:12:37.556Z,61.53
2018-03-06T08:15:05.352Z,73.90
2018-03-06T08:17:33.057Z,76.37
2018-03-06T08:20:00.777Z,72.13
2018-03-06T08:22:28.489Z,67.90
2018-03-06T08:24:56.302Z,69.13
2018-03-06T08:27:23.994Z,75.63
2018-03-06T08:29:51.730Z,85.80
2018-03-06T08:32:19.406Z,73.07
2018-03-06T08:34:47.230Z,67.73
2018-03-06T08:37:14.879Z,63.03
2018-03-06T08:39:42.633Z,63.27
2018-03-06T08:42:10.308Z,54.73
2018-03-06T08:44:38.014Z,69.77
2018-03-06T08:47:05.686Z,67.27
2018-03-06T08:49:33.408Z,68.13
2018-03-06T08:52:01.046Z,79.60
2018-03-06T08:54:28.743Z,71.47
2018-03-06T08:56:56.494Z,82.93
2018-03-06T08:59:24.168Z,65.30
2018-03-06T09:01:51.862Z,76.40
2018-03-06T09:04:19.523Z,69.93
2018-03-06T09:06:47.274Z,75.87
2018-03-06T09:09:14.938Z,72.10
2018-03-06T09:11:42.654Z,79.07
2018-03-06T09:14:10.390Z,68.30
2018-03-06T09:16:38.172Z,66.80
2018-03-06T09:19:05.822Z,66.10
2018-03-06T09:21:33.511Z,70.27
2018-03-06T09:24:01.272Z,72.43
2018-03-06T09:26:28.970Z,75.30
2018-03-06T09:28:56.629Z,77.13
2018-03-06T09:31:24.319Z,70.77
2018-03-06T09:33:52.052Z,64.77
2018-03-06T09:36:19.731Z,60.53
2018-03-06T09:38:47.494Z,62.37
2018-03-06T09:41:15.182Z,77.50
2018-03-06T09:43:42.905Z,72.63
2018-03-06T09:46:10.614Z,69.70
2018-03-06T09:48:38.383Z,69.47
2018-03-06T09:51:06.062Z,73.90
2018-03-06T09:53:33.850Z,75.70
2018-03-06T09:56:01.522Z,69.50
2018-03-06T09:58:29.342Z,68.83
2018-03-06T10:00:57.031Z,70.60
2018-03-06T10:03:24.817Z,69.47
2018-03-06T10:05:52.577Z,74.20
2018-03-06T10:08:20.374Z,69.23
2018-03-06T10:10:48.039Z,71.60
2018-03-06T10:13:15.778Z,74.33
2018-03-06T10:15:43.508Z,71.50
2018-03-06T10:18:11.256Z,70.13
2018-03-06T10:20:39.010Z,66.07
2018-03-06T10:23:06.745Z,67.60
2018-03-06T10:25:34.509Z,67.77
2018-03-06T10:28:02.220Z,74.10
2018-03-06T10:30:30.023Z,49.20
2018-03-06T10:32:57.747Z,70.27
2018-03-06T10:35:25.531Z,59.13
2018-03-06T10:37:53.351Z,65.33
2018-03-06T10:40:21.122Z,57.23
2018-03-06T10:42:48.864Z,67.33
2018-03-06T10:45:16.659Z,61.93
2018-03-06T10:47:44.366Z,63.83
2018-03-06T10:50:12.099Z,65.70
2018-03-06T10:52:39.879Z,65.37
2018-03-06T10:55:07.587Z,56.77
2018-03-06T10:57:35.353Z,67.23
2018-03-06T11:00:03.112Z,65.13
2018-03-06T11:02:32.814Z,65.87
2018-03-06T11:05:00.559Z,60.63
2018-03-06T11:07:28.337Z,64.87
2018-03-06T11:09:56.037Z,65.07
2018-03-06T11:12:23.780Z,67.73
2018-03-06T11:14:51.536Z,55.67
2018-03-06T11:17:19.327Z,58.63
2018-03-06T11:19:47.050Z,55.57
2018-03-06T11:22:14.808Z,58.53
2018-03-06T11:24:42.529Z,54.90
2018-03-06T11:27:10.318Z,55.90
2018-03-06T11:29:38.046Z,60.57
2018-03-06T11:32:05.827Z,56.60
2018-03-06T11:34:33.554Z,57.27
2018-03-06T11:37:01.268Z,59.13
2018-03-06T11:39:29.066Z,56.73
2018-03-06T11:41:56.768Z,54.63
2018-03-06T11:44:24.508Z,51.03
2018-03-06T11:46:52.221Z,50.40
2018-03-06T11:49:19.988Z,52.93
2018-03-06T11:51:47.722Z,48.67
2018-03-06T11:54:15.475Z,50.70
2018-03-06T11:56:43.200Z,52.00
2018-03-06T11:59:10.955Z,55.37
2018-03-06T12:01:38.749Z,48.50
2018-03-06T12:04:06.484Z,55.30
2018-03-06T12:06:34.221Z,56.80
2018-03-06T12:09:01.978Z,46.03
2018-03-06T12:11:29.650Z,45.23
2018-03-06T12:13:57.376Z,46.30
2018-03-06T12:16:25.050Z,47.50
2018-03-06T12:18:52.793Z,50.40
2018-03-06T12:21:20.486Z,45.87
2018-03-06T12:23:48.173Z,50.60
2018-03-06T12:26:15.889Z,46.27
2018-03-06T12:28:43.676Z,44.83
2018-03-06T12:31:11.362Z,47.43
2018-03-06T12:33:39.066Z,45.10
2018-03-06T12:36:06.769Z,45.30
2018-03-06T12:38:34.445Z,40.33
2018-03-06T12:41:02.144Z,47.30
2018-03-06T12:43:29.778Z,43.00
2018-03-06T12:45:57.554Z,44.40
2018-03-06T12:48:25.223Z,46.67
2018-03-06T12:50:52.911Z,48.83
2018-03-06T12:53:20.576Z,45.80
2018-03-06T12:55:48.367Z,48.23
2018-03-06T12:58:16.142Z,45.57
2018-03-06T13:00:43.813Z,51.60
2018-03-06T13:03:11.451Z,46.00
2018-03-06T13:05:39.162Z,51.60
2018-03-06T13:08:06.784Z,45.90
2018-03-06T13:10:34.501Z,52.10
2018-03-06T13:13:02.162Z,50.90
2018-03-06T13:15:29.798Z,45.90
2018-03-06T13:17:57.475Z,52.07
2018-03-06T13:20:25.107Z,51.77
2018-03-06T13:22:52.786Z,50.63
2018-03-06T13:25:20.442Z,44.47
2018-03-06T13:27:48.154Z,45.13
2018-03-06T13:30:15.832Z,46.90
2018-03-06T13:32:43.547Z,45.73
2018-03-06T13:35:11.300Z,43.83
2018-03-06T13:37:38.975Z,47.77
2018-03-06T13:40:06.635Z,41.10
2018-03-06T13:42:34.315Z,42.40
2018-03-06T13:45:01.951Z,40.50
2018-03-06T13:47:29.657Z,46.90
2018-03-06T13:49:57.348Z,45.83
2018-03-06T13:52:24.994Z,44.10
2018-03-06T13:54:52.694Z,46.67
2018-03-06T13:57:20.369Z,45.13
2018-03-06T13:59:48.116Z,42.07
2018-03-06T14:02:15.800Z,42.10
2018-03-06T14:04:43.552Z,43.07
2018-03-06T14:07:11.240Z,44.80
2018-03-06T14:09:38.994Z,42.87
2018-03-06T14:12:06.643Z,43.33
2018-03-06T14:14:34.343Z,44.50
2018-03-06T14:17:01.984Z,41.40
2018-03-06T14:19:29.674Z,42.33
2018-03-06T14:21:57.516Z,45.27
2018-03-06T14:24:25.239Z,43.60
2018-03-06T14:26:52.912Z,45.03
2018-03-06T14:29:20.579Z,45.20
2018-03-06T14:31:48.301Z,49.63
2018-03-06T14:34:15.966Z,42.23
2018-03-06T14:36:43.682Z,42.43
2018-03-06T14:39:11.368Z,47.17
2018-03-06T14:41:39.373Z,40.40
2018-03-06T14:44:07.067Z,48.30
2018-03-06T14:46:35.617Z,48.53
2018-03-06T14:49:03.358Z,48.10
2018-03-06T14:51:31.079Z,41.93
2018-03-06T14:53:58.767Z,43.77
2018-03-06T14:56:26.477Z,41.20
2018-03-06T14:58:54.124Z,39.10
2018-03-06T15:01:21.867Z,43.63
2018-03-06T15:03:49.525Z,44.60
2018-03-06T15:06:17.258Z,49.83
2018-03-06T15:08:44.950Z,47.70
2018-03-06T15:11:12.656Z,49.07
2018-03-06T15:13:40.339Z,46.77
2018-03-06T15:16:08.029Z,47.70
2018-03-06T15:18:35.729Z,45.47
2018-03-06T15:21:03.473Z,45.20
2018-03-06T15:23:31.240Z,45.97
2018-03-06T15:25:58.893Z,48.17
2018-03-06T15:28:26.593Z,52.23
2018-03-06T15:30:54.273Z,53.47
2018-03-06T15:33:22.006Z,49.77
2018-03-06T15:35:49.692Z,48.17
2018-03-06T15:38:17.466Z,49.50
2018-03-06T15:40:45.180Z,45.50
2018-03-06T15:43:12.881Z,51.07
2018-03-06T15:45:40.540Z,56.73
2018-03-06T15:48:08.238Z,48.87
2018-03-06T15:50:39.059Z,50.60
2018-03-06T15:53:06.984Z,49.60
2018-03-06T15:55:34.687Z,47.03
2018-03-06T15:58:02.399Z,56.13
2018-03-06T16:00:30.155Z,61.83
2018-03-06T16:02:57.902Z,64.03
2018-03-06T16:05:25.634Z,62.30
2018-03-06T16:07:53.264Z,64.23
2018-03-06T16:10:22.091Z,63.30
2018-03-06T16:12:49.847Z,71.40
2018-03-06T16:15:17.507Z,66.23
2018-03-06T16:17:45.253Z,65.90
2018-03-06T16:20:12.950Z,58.87
2018-03-06T16:22:40.634Z,61.53
2018-03-06T16:25:08.329Z,71.63
2018-03-06T16:27:36.029Z,53.47
2018-03-06T16:30:03.832Z,64.43
2018-03-06T16:32:31.498Z,61.80
2018-03-06T16:34:59.246Z,60.70
2018-03-06T16:37:26.917Z,58.43
2018-03-06T16:39:54.767Z,66.90
2018-03-06T16:42:22.482Z,60.53
2018-03-06T16:44:50.273Z,65.17
2018-03-06T16:47:18.323Z,61.00
2018-03-06T16:49:45.950Z,63.23
2018-03-06T16:52:13.656Z,58.83
2018-03-06T16:54:41.312Z,57.20
2018-03-06T16:57:08.998Z,65.17
2018-03-06T16:59:36.630Z,59.03
2018-03-06T17:02:04.318Z,65.20
2018-03-06T17:04:31.951Z,68.70
2018-03-06T17:06:59.638Z,80.40
2018-03-06T17:09:27.309Z,63.53
2018-03-06T17:11:55.010Z,67.57
2018-03-06T17:14:22.827Z,68.60
2018-03-06T17:16:50.638Z,68.37
2018-03-06T17:19:18.696Z,73.67
2018-03-06T17:21:46.675Z,72.30
2018-03-06T17:24:14.644Z,67.60
2018-03-06T17:26:42.482Z,73.60
2018-03-06T17:29:10.407Z,72.37
2018-03-06T17:31:38.392Z,75.80
2018-03-06T17:34:06.278Z,71.00
2018-03-06T17:36:34.210Z,81.90
2018-03-06T17:39:02.098Z,88.27
2018-03-06T17:41:29.943Z,83.70
2018-03-06T17:43:57.685Z,82.30
2018-03-06T17:46:25.361Z,75.83
2018-03-06T17:48:53.039Z,89.10
2018-03-06T17:51:20.681Z,93.30
2018-03-06T17:53:49.498Z,86.03
2018-03-06T17:56:17.212Z,89.60
2018-03-06T17:58:44.941Z,87.53
2018-03-06T18:01:12.618Z,92.83
2018-03-06T18:03:40.308Z,95.87
2018-03-06T18:06:07.983Z,90.93
2018-03-06T18:08:35.621Z,94.73
2018-03-06T18:11:03.319Z,94.83
2018-03-06T18:13:30.960Z,98.40
2018-03-06T18:15:58.669Z,84.37
2018-03-06T18:18:26.338Z,93.93
2018-03-06T18:20:54.048Z,97.20
2018-03-06T18:23:21.724Z,97.37
2018-03-06T18:25:50.556Z,95.33
2018-03-06T18:28:18.466Z,98.33
2018-03-06T18:30:47.384Z,99.80
2018-03-06T18:33:15.474Z,93.20
2018-03-06T18:35:43.756Z,108.87
2018-03-06T18:38:11.406Z,97.60
2018-03-06T18:40:39.088Z,107.83
2018-03-06T18:43:06.760Z,103.97
2018-03-06T18:45:34.451Z,104.53
2018-03-06T18:48:02.137Z,104.03
2018-03-06T18:50:41.736Z,102.70
2018-03-06T18:53:09.396Z,108.77
2018-03-06T18:55:37.115Z,105.87
2018-03-06T18:58:04.820Z,109.83
2018-03-06T19:00:59.255Z,105.67
2018-03-06T19:03:38.823Z,105.73
2018-03-06T19:06:18.354Z,109.93
2018-03-06T19:08:46.055Z,106.27
2018-03-06T19:11:13.771Z,116.03
2018-03-06T19:13:41.427Z,116.17
2018-03-06T19:16:09.082Z,105.20
2018-03-06T19:18:36.816Z,114.37
2018-03-06T19:21:04.503Z,108.03
2018-03-06T19:23:32.223Z,113.20
2018-03-06T19:25:59.940Z,125.60
2018-03-06T19:28:27.667Z,111.60
2018-03-06T19:30:55.466Z,116.83
2018-03-06T19:33:23.125Z,112.90
2018-03-06T19:35:50.810Z,119.77
2018-03-06T19:38:18.521Z,108.77
2018-03-06T19:40:47.342Z,108.40
2018-03-06T19:43:15.042Z,109.37
2018-03-06T19:45:42.711Z,112.17
2018-03-06T19:48:10.410Z,113.77
2018-03-06T19:50:38.075Z,119.77
2018-03-06T19:53:05.793Z,121.33
2018-03-06T19:55:33.454Z,116.23
2018-03-06T19:58:01.189Z,121.53
2018-03-06T20:00:28.890Z,115.23
2018-03-06T20:02:56.579Z,117.20
2018-03-06T20:05:24.351Z,123.57
2018-03-06T20:07:52.015Z,124.17
2018-03-06T20:10:19.748Z,117.70
2018-03-06T20:12:47.477Z,115.97
2018-03-06T20:15:16.245Z,122.70
2018-03-06T20:17:44.015Z,119.57
2018-03-06T20:20:11.747Z,124.93
2018-03-06T20:22:39.441Z,125.43
2018-03-06T20:25:12.817Z,122.47
2018-03-06T20:27:40.524Z,125.20
2018-03-06T20:30:08.259Z,119.13
2018-03-06T20:32:41.318Z,126.67
2018-03-06T20:35:08.996Z,126.90
2018-03-06T20:37:36.674Z,119.03
2018-03-06T20:40:09.986Z,132.57
2018-03-06T20:42:37.721Z,123.50
2018-03-06T20:45:05.404Z,119.67
2018-03-06T20:47:33.065Z,132.73
2018-03-06T20:50:00.771Z,126.70
2018-03-06T20:52:28.459Z,123.40
2018-03-06T20:55:01.530Z,133.00
2018-03-06T20:57:29.315Z,134.03
2018-03-06T20:59:57.025Z,129.40
2018-03-06T21:02:24.693Z,124.53
2018-03-06T21:04:52.411Z,130.00
2018-03-06T21:07:20.092Z,124.07
2018-03-06T21:09:47.852Z,125.17
2018-03-06T21:12:15.578Z,122.43
2018-03-06T21:14:43.234Z,127.87
2018-03-06T21:17:10.974Z,118.50
2018-03-06T21:19:38.643Z,126.73
2018-03-06T21:22:06.352Z,118.70
2018-03-06T21:24:34.036Z,132.20
2018-03-06T21:27:01.730Z,123.83
2018-03-06T21:29:29.438Z,125.93
2018-03-06T21:31:57.170Z,117.10
2018-03-06T21:34:24.889Z,116.80
2018-03-06T21:36:52.826Z,118.60
2018-03-06T21:39:20.507Z,127.87
2018-03-06T21:41:48.218Z,127.40
2018-03-06T21:44:15.894Z,122.77
2018-03-06T21:46:43.601Z,135.17
2018-03-06T21:49:11.279Z,128.00
2018-03-06T21:51:38.956Z,128.43
2018-03-06T21:54:06.912Z,121.43
2018-03-06T21:56:34.575Z,120.10
2018-03-06T21:59:02.306Z,122.93
2018-03-06T22:01:29.969Z,130.53
2018-03-06T22:03:57.688Z,119.70
2018-03-06T22:06:25.345Z,121.20
2018-03-06T22:08:53.048Z,125.97
2018-03-06T22:11:20.826Z,124.20
2018-03-06T22:13:48.537Z,128.10
2018-03-06T22:16:16.231Z,127.17
2018-03-06T22:18:43.930Z,122.57
2018-03-06T22:21:11.637Z,125.97
2018-03-06T22:23:39.410Z,127.47
2018-03-06T22:26:07.109Z,122.03
2018-03-06T22:28:34.812Z,116.00
2018-03-06T22:31:02.500Z,118.80
2018-03-06T22:33:30.220Z,124.07
2018-03-06T22:35:58.159Z,122.87
2018-03-06T22:38:25.848Z,117.87
2018-03-06T22:40:53.550Z,123.00
2018-03-06T22:43:21.210Z,132.23
2018-03-06T22:45:49.002Z,120.27
2018-03-06T22:48:16.678Z,133.80
2018-03-06T22:50:44.380Z,120.90
2018-03-06T22:53:12.082Z,119.60
2018-03-06T22:55:39.774Z,123.93
2018-03-06T22:58:07.614Z,120.87
2018-03-06T23:00:35.313Z,117.23
2018-03-06T23:03:02.956Z,127.23
2018-03-06T23:05:30.663Z,122.73
2018-03-06T23:07:58.333Z,126.90
2018-03-06T23:10:26.151Z,128.60
2018-03-06T23:12:53.930Z,125.87
2018-03-06T23:15:21.631Z,122.83
2018-03-06T23:17:49.342Z,122.50
2018-03-06T23:20:17.020Z,115.90
2018-03-06T23:22:44.731Z,121.37
2018-03-06T23:25:12.390Z,123.20
2018-03-06T23:27:40.083Z,122.23
2018-03-06T23:30:07.874Z,122.10
2018-03-06T23:32:35.600Z,119.30
2018-03-06T23:35:03.238Z,115.67
2018-03-06T23:37:30.871Z,124.73
2018-03-06T23:39:58.545Z,123.70
2018-03-06T23:42:27.104Z,115.63
2018-03-06T23:44:54.814Z,121.23
2018-03-06T23:47:22.591Z,110.50
2018-03-06T23:49:50.389Z,121.97
2018-03-06T23:52:18.026Z,115.20
2018-03-06T23:54:45.734Z,123.23
2018-03-06T23:57:13.398Z,127.10
2018-03-06T23:59:41.211Z,120.33
